• Join FlightAware (Why Join?)
  • Login
  • US Flag 
11:31AM EDT


 

Airport Tracker/Info


-or-


 

Live Flight TrackerFlight Track Log ✈ DAL1092 ✈ 19-Aug-2013 ✈ KATL - KSYR

Flight Track Log - Related Links

Times and Time Zones

All times are in EDT time to prevent confusion due to time zone crossing. See the DAL1092 flight status page for this flight to view local times or setup timezone preferences in your user account.

Time Position Orientation Groundspeed Altitude Reporting Facility
EDT Latitude Longitude Course Direction KTS MPH feet Rate Location/Type
09:52AM 33.6500 -84.3167 North 223 257 3,200  Level Atlanta TRACON
09:53AM 33.6667 -84.2333 76° East 279 321 5,900 2,640 Climbing Atlanta TRACON
09:54AM 33.8617 -84.1950 320° Northwest  Level FlightAware Approximate
09:54AM 33.7333 -84.1833 32° Northeast 306 352 8,500  Level Atlanta TRACON
09:55AM 33.9738 -84.2667 North  Level FlightAware Approximate
09:56AM 34.1074 -84.2667 North  Level FlightAware Approximate
09:56AM 33.9025 -84.2389 345° North 283 326 10,600  Level Atlanta Center
09:57AM 34.2410 -84.2667 North  Level FlightAware Approximate
09:57AM 33.9797 -84.2792 337° Northwest 288 331 12,600  Level Atlanta Center
09:58AM 34.0842 -84.2794 360° North 328 377 13,900 1,620 Climbing Atlanta Center
09:59AM 34.1928 -84.2800 360° North 371 427 15,900 1,980 Climbing Atlanta Center
10:00AM 34.3053 -84.2803 360° North 390 449 17,900 1,800 Climbing Atlanta Center
10:01AM 34.4181 -84.2503 12° North 405 466 19,600 1,500 Climbing Atlanta Center
10:02AM 34.5308 -84.2253 10° North 410 472 21,000 1,440 Climbing Atlanta Center
10:03AM 34.6500 -84.1953 12° North 425 489 22,500 1,320 Climbing Atlanta Center
10:04AM 34.7667 -84.1728 North 425 489 23,700 1,080 Climbing Atlanta Center
10:05AM 34.8919 -84.1425 11° North 440 506 24,700 900 Climbing Atlanta Center
10:06AM 35.0214 -84.1097 12° North 452 520 25,600 900 Climbing Atlanta Center
10:07AM 35.1528 -84.0769 12° North 464 534 26,500 720 Climbing Atlanta Center
10:08AM 35.2906 -84.0464 10° North 485 558 27,100 720 Climbing Atlanta Center
10:09AM 35.4283 -84.0133 11° North 498 573 28,000 900 Climbing Atlanta Center
10:10AM 35.5639 -83.9775 12° North 498 573 29,000 900 Climbing Atlanta Center
10:11AM 35.7017 -83.9417 12° North 503 579 29,900 840 Climbing Atlanta Center
10:12AM 35.8414 -83.9106 10° North 503 579 30,700 720 Climbing Atlanta Center
10:13AM 35.9808 -83.8489 20° North 509 586 31,400 600 Climbing Atlanta Center
10:14AM 36.1100 -83.7664 27° Northeast 515 593 32,000 360 Climbing Atlanta Center
10:15AM 36.1811 -83.7194 28° Northeast 523 602 32,000 360 Level Indianapolis Center
10:16AM 36.3108 -83.6378 27° Northeast 524 603 32,700 900 Climbing Indianapolis Center
10:17AM 36.4653 -83.5392 27° Northeast 522 601 33,900 1,020 Climbing Indianapolis Center
10:18AM 36.5850 -83.4639 27° Northeast 526 605 34,900 720 Climbing Indianapolis Center
10:19AM 36.7061 -83.3642 33° Northeast 525 604 35,400 600 Climbing Indianapolis Center
10:20AM 36.8433 -83.2353 37° Northeast 523 602 36,200 720 Climbing Indianapolis Center
10:21AM 36.9628 -83.1231 37° Northeast 526 605 36,900 360 Climbing Indianapolis Center
10:22AM 37.0839 -83.0097 37° Northeast 530 610 37,000  Climbing Indianapolis Center
10:23AM 37.2006 -82.8950 38° Northeast 527 606 37,000  Level Indianapolis Center
10:24AM 37.3178 -82.7828 37° Northeast 528 608 37,000  Level Indianapolis Center
10:25AM 37.4339 -82.6689 38° Northeast 528 608 37,000  Level Indianapolis Center
10:26AM 37.5533 -82.5600 36° Northeast 528 608 37,000  Level Indianapolis Center
10:27AM 37.6711 -82.4497 37° Northeast 527 606 37,000  Level Indianapolis Center
10:28AM 37.8103 -82.3211 36° Northeast 530 610 37,000  Level Indianapolis Center
10:29AM 37.9297 -82.2086 37° Northeast 534 615 37,000  Level Indianapolis Center
10:30AM 38.0467 -82.0989 36° Northeast 531 611 37,000  Level Indianapolis Center
10:32AM 38.1647 -81.9872 37° Northeast 530 610 37,000  Level Indianapolis Center
10:33AM 38.2836 -81.8756 36° Northeast 531 611 37,000  Level Indianapolis Center
10:34AM 38.4025 -81.7619 37° Northeast 533 613 37,000  Level Indianapolis Center
10:35AM 38.5436 -81.6272 37° Northeast 531 611 37,000  Level Indianapolis Center
10:36AM 38.6608 -81.5147 37° Northeast 531 611 37,000  Level Indianapolis Center
10:37AM 38.7800 -81.4011 37° Northeast 531 611 37,000  Level Indianapolis Center
10:38AM 38.9133 -81.2714 37° Northeast 532 612 37,000  Level Indianapolis Center
10:39AM 39.0300 -81.1578 37° Northeast 525 604 37,000  Level Indianapolis Center
10:40AM 39.1475 -81.0436 37° Northeast 530 610 37,000  Level Indianapolis Center
10:41AM 39.2625 -80.9294 38° Northeast 524 603 37,000  Level Indianapolis Center
10:42AM 39.3803 -80.8153 37° Northeast 528 608 37,000  Level Indianapolis Center
10:43AM 39.4961 -80.6994 38° Northeast 527 606 37,000  Level Indianapolis Center
10:44AM 39.6139 -80.5817 38° Northeast 532 612 37,000  Level Indianapolis Center
10:45AM 39.7272 -80.4697 37° Northeast 538 619 37,000  Level Cleveland Center
10:46AM 39.8419 -80.3561 37° Northeast 532 612 37,000  Level Cleveland Center
10:47AM 39.9603 -80.2364 38° Northeast 532 612 37,000  Level Cleveland Center
10:48AM 40.0786 -80.1192 37° Northeast 532 612 37,000  Level Cleveland Center
10:49AM 40.1969 -79.9986 38° Northeast 539 620 37,000  Level Cleveland Center
10:50AM 40.3153 -79.8778 38° Northeast 534 615 37,000  Level Cleveland Center
10:51AM 40.4331 -79.7594 37° Northeast 534 615 37,000  Level Cleveland Center
10:52AM 40.5489 -79.6403 38° Northeast 534 615 37,000  Level Cleveland Center
10:53AM 40.6667 -79.5183 38° Northeast 534 615 37,000  Level Cleveland Center
10:54AM 40.7822 -79.3986 38° Northeast 534 615 37,000  Level Cleveland Center
10:55AM 40.8978 -79.2783 38° Northeast 534 615 37,000  Level Cleveland Center
10:56AM 41.0111 -79.1578 39° Northeast 534 615 37,000 -600 Level Cleveland Center
10:57AM 41.1261 -79.0367 38° Northeast 534 615 35,800 -1,380 Descending Cleveland Center
10:58AM 41.2433 -78.9181 37° Northeast 529 609 34,300 -900 Descending Cleveland Center
10:59AM 41.3581 -78.7933 39° Northeast 536 617 34,000 -180 Descending Cleveland Center
11:00AM 41.4728 -78.6681 39° Northeast 536 617 34,000 -480 Level Cleveland Center
11:01AM 41.5894 -78.5425 39° Northeast 536 617 33,100 -840 Descending Cleveland Center
11:03AM 41.8267 -78.2869 39° Northeast 536 617 31,600 -1,080 Descending Cleveland Center
11:04AM 41.9511 -78.1542 38° Northeast 536 617 29,900 -2,040 Descending Cleveland Center
11:05AM 42.0489 -78.0469 39° Northeast 509 586 27,600 -2,400 Descending Cleveland Center
11:06AM 42.1400 -77.9369 42° Northeast 455 524 25,100 -2,160 Descending Cleveland Center
11:07AM 42.2189 -77.8269 46° Northeast 422 486 23,300 -1,080 Descending Cleveland Center
11:08AM 42.2975 -77.7169 46° Northeast 403 464 23,000 -180 Descending Cleveland Center
11:09AM 42.3842 -77.5978 45° Northeast 410 472 23,000  Level Cleveland Center
11:10AM 42.4686 -77.4839 45° Northeast 415 478 23,000  Level Cleveland Center
11:11AM 42.5450 -77.3758 46° Northeast 424 488 23,000 -1,020 Level Cleveland Center
11:12AM 42.6272 -77.2617 46° Northeast 424 488 21,000 -2,040 Descending Cleveland Center
11:13AM 42.7053 -77.1531 46° Northeast 417 480 19,000 -2,460 Descending Cleveland Center
11:14AM 42.7822 -77.0492 45° Northeast 386 444 16,300 -2,520 Descending Boston Center
11:15AM 42.8903 -76.9014 45° Northeast 372 428 13,100 -2,160 Descending Boston Center
11:16AM 42.9606 -76.8072 44° Northeast 364 419 11,100 -1,080 Descending Boston Center
11:17AM 43.0333 -76.7072 45° Northeast 357 411 11,000 -60 Descending Boston Center
11:18AM 43.1014 -76.6153 45° Northeast 357 411 11,000 -60 Level Boston Center
11:19AM 43.1756 -76.5206 43° Northeast 351 404 10,900 -600 Descending Boston Center
11:20AM 43.2125 -76.4206 63° Northeast 294 338 9,900 -1,380 Descending Boston Center
11:21AM 43.2017 -76.3142 98° East 290 334 8,200 -1,680 Descending Boston Center
11:22AM 43.1886 -76.2022 99° East 293 337 6,600 -1,680 Descending Boston Center
11:23AM 43.1775 -76.0961 98° East 273 314 4,900 -1,500 Descending Boston Center
11:24AM 43.1811 -75.9853 87° East 241 277 3,500 -1,140 Descending Boston Center
11:25AM 43.1428 -75.9375 138° Southeast 184 212 2,600 -720 Descending Boston Center
11:26AM 43.1186 -75.9817 233° Southwest 136 157 2,100 -600 Descending Boston Center
11:27AM 43.1106 -76.0353 258° West 134 154 1,400 -720 Descending Boston Center
11:28AM 43.1092 -76.0864 268° West 136 157 700 -720 Descending Boston Center